createdAt,value
2018-09-22T00:00:50.125Z,11.20
2018-09-22T00:03:19.970Z,11.20
2018-09-22T00:05:49.273Z,11.20
2018-09-22T00:08:17.833Z,11.20
2018-09-22T00:10:46.453Z,11.10
2018-09-22T00:13:15.054Z,11.10
2018-09-22T00:15:43.626Z,11.10
2018-09-22T00:18:12.226Z,11.10
2018-09-22T00:20:40.989Z,11.10
2018-09-22T00:24:33.782Z,11.20
2018-09-22T00:27:02.453Z,11.10
2018-09-22T00:29:31.229Z,11.10
2018-09-22T00:31:59.950Z,11.00
2018-09-22T00:34:28.561Z,11.00
2018-09-22T00:36:57.189Z,10.90
2018-09-22T00:39:26.692Z,10.80
2018-09-22T00:41:55.311Z,10.80
2018-09-22T00:44:23.998Z,10.70
2018-09-22T00:46:52.777Z,10.70
2018-09-22T00:49:21.341Z,10.70
2018-09-22T00:51:49.908Z,10.60
2018-09-22T00:54:18.597Z,10.60
2018-09-22T00:56:47.215Z,10.50
2018-09-22T00:59:15.830Z,10.50
2018-09-22T01:01:44.398Z,10.50
2018-09-22T01:04:13.001Z,10.50
2018-09-22T01:06:41.671Z,10.50
2018-09-22T01:09:10.256Z,10.40
2018-09-22T01:11:39.118Z,10.40
2018-09-22T01:14:08.273Z,10.30
2018-09-22T01:16:37.209Z,10.20
2018-09-22T01:19:06.076Z,10.20
2018-09-22T01:21:34.660Z,10.10
2018-09-22T01:24:03.221Z,10.00
2018-09-22T01:26:31.908Z,9.90
2018-09-22T01:29:00.429Z,9.70
2018-09-22T01:31:29.053Z,9.70
2018-09-22T01:33:57.670Z,9.70
2018-09-22T01:36:26.213Z,9.70
2018-09-22T01:38:55.068Z,9.60
2018-09-22T01:41:23.684Z,9.60
2018-09-22T01:43:52.778Z,9.50
2018-09-22T01:46:21.632Z,9.50
2018-09-22T01:48:50.212Z,9.60
2018-09-22T01:51:18.764Z,9.50
2018-09-22T01:53:47.292Z,9.50
2018-09-22T01:56:15.912Z,9.50
2018-09-22T01:58:44.516Z,9.40
2018-09-22T02:01:13.090Z,9.40
2018-09-22T02:03:41.700Z,9.40
2018-09-22T02:06:10.323Z,9.50
2018-09-22T02:08:38.856Z,9.40
2018-09-22T02:11:07.662Z,9.40
2018-09-22T02:13:36.237Z,9.30
2018-09-22T02:16:05.308Z,9.30
2018-09-22T02:18:33.973Z,9.30
2018-09-22T02:21:02.578Z,9.30
2018-09-22T02:23:31.508Z,9.30
2018-09-22T02:26:00.094Z,9.30
2018-09-22T02:28:28.792Z,9.30
2018-09-22T02:30:57.425Z,9.30
2018-09-22T02:33:26.160Z,9.30
2018-09-22T02:35:54.872Z,9.20
2018-09-22T02:38:23.477Z,9.20
2018-09-22T02:40:52.009Z,9.20
2018-09-22T02:43:20.545Z,9.30
2018-09-22T02:45:49.110Z,9.30
2018-09-22T02:48:17.901Z,9.40
2018-09-22T02:50:46.529Z,9.50
2018-09-22T02:53:15.113Z,9.50
2018-09-22T02:55:43.872Z,9.50
2018-09-22T02:58:12.389Z,9.60
2018-09-22T03:00:40.989Z,9.60
2018-09-22T03:03:09.541Z,9.60
2018-09-22T03:05:38.133Z,9.60
2018-09-22T03:08:06.775Z,9.60
2018-09-22T03:10:35.463Z,9.60
2018-09-22T03:13:04.111Z,9.60
2018-09-22T03:15:32.687Z,9.60
2018-09-22T03:18:01.343Z,9.60
2018-09-22T03:20:30.009Z,9.60
2018-09-22T03:22:58.545Z,9.60
2018-09-22T03:25:27.122Z,9.50
2018-09-22T03:27:55.768Z,9.50
2018-09-22T03:30:24.406Z,9.50
2018-09-22T03:32:53.181Z,9.50
2018-09-22T03:35:21.868Z,9.50
2018-09-22T03:37:50.413Z,9.40
2018-09-22T03:40:19.027Z,9.40
2018-09-22T03:42:48.360Z,9.30
2018-09-22T03:45:16.885Z,9.20
2018-09-22T03:47:45.777Z,9.10
2018-09-22T03:50:14.313Z,9.10
2018-09-22T03:52:42.932Z,9.10
2018-09-22T03:55:11.746Z,9.00
2018-09-22T03:57:40.445Z,9.00
2018-09-22T04:00:09.720Z,8.90
2018-09-22T04:02:38.378Z,8.80
2018-09-22T04:05:07.332Z,8.80
2018-09-22T04:07:35.987Z,8.70
2018-09-22T04:10:04.988Z,8.70
2018-09-22T04:12:33.661Z,8.60
2018-09-22T04:15:02.305Z,8.60
2018-09-22T04:17:31.116Z,8.60
2018-09-22T04:20:00.342Z,8.60
2018-09-22T04:22:29.852Z,8.50
2018-09-22T04:24:58.735Z,8.50
2018-09-22T04:27:27.450Z,8.50
2018-09-22T04:29:56.046Z,8.60
2018-09-22T04:32:24.624Z,8.60
2018-09-22T04:34:53.277Z,8.50
2018-09-22T04:37:21.930Z,8.50
2018-09-22T04:39:50.509Z,8.50
2018-09-22T04:42:19.067Z,8.50
2018-09-22T04:44:47.641Z,8.50
2018-09-22T04:47:16.240Z,8.50
2018-09-22T04:49:44.979Z,8.50
2018-09-22T04:52:13.792Z,8.40
2018-09-22T04:54:42.500Z,8.30
2018-09-22T04:57:11.162Z,8.30
2018-09-22T04:59:40.193Z,8.20
2018-09-22T05:02:08.756Z,8.30
2018-09-22T05:04:37.813Z,8.20
2018-09-22T05:07:06.866Z,8.20
2018-09-22T05:09:35.491Z,8.20
2018-09-22T05:12:04.241Z,8.10
2018-09-22T05:14:32.906Z,8.10
2018-09-22T05:17:01.650Z,8.00
2018-09-22T05:19:30.301Z,7.90
2018-09-22T05:21:58.953Z,7.90
2018-09-22T05:24:27.867Z,7.90
2018-09-22T05:26:56.662Z,7.90
2018-09-22T05:29:25.296Z,7.90
2018-09-22T05:31:53.849Z,7.90
2018-09-22T05:34:22.554Z,7.80
2018-09-22T05:36:51.378Z,7.80
2018-09-22T05:39:20.012Z,7.90
2018-09-22T05:41:48.646Z,7.90
2018-09-22T05:44:17.252Z,8.00
2018-09-22T05:46:46.000Z,8.00
2018-09-22T05:49:14.749Z,8.00
2018-09-22T05:51:43.371Z,8.10
2018-09-22T05:54:11.942Z,8.10
2018-09-22T05:56:40.638Z,8.10
2018-09-22T05:59:09.431Z,8.10
2018-09-22T06:01:38.352Z,8.10
2018-09-22T06:04:07.838Z,8.10
2018-09-22T06:06:36.485Z,8.10
2018-09-22T06:09:07.489Z,8.20
2018-09-22T06:11:36.773Z,8.30
2018-09-22T06:14:06.042Z,8.30
2018-09-22T06:16:34.754Z,8.30
2018-09-22T06:19:04.000Z,8.50
2018-09-22T06:21:32.730Z,8.50
2018-09-22T06:24:01.316Z,8.50
2018-09-22T06:26:29.981Z,8.60
2018-09-22T06:28:58.599Z,8.80
2018-09-22T06:31:27.230Z,8.90
2018-09-22T06:33:55.801Z,9.00
2018-09-22T06:36:24.360Z,9.20
2018-09-22T06:38:52.958Z,9.30
2018-09-22T06:41:21.809Z,9.20
2018-09-22T06:43:50.466Z,9.30
2018-09-22T06:46:19.131Z,9.40
2018-09-22T06:48:47.857Z,9.50
2018-09-22T06:51:16.442Z,9.50
2018-09-22T06:53:45.056Z,9.60
2018-09-22T06:56:13.741Z,9.60
2018-09-22T06:58:42.416Z,9.80
2018-09-22T07:01:11.253Z,9.80
2018-09-22T07:03:39.864Z,9.90
2018-09-22T07:06:08.985Z,10.00
2018-09-22T07:08:38.100Z,10.10
2018-09-22T07:11:07.033Z,10.10
2018-09-22T07:13:35.632Z,10.00
2018-09-22T07:16:05.060Z,10.20
2018-09-22T07:18:33.600Z,10.40
2018-09-22T07:21:07.153Z,10.60
2018-09-22T07:23:36.628Z,10.70
2018-09-22T07:26:05.732Z,10.80
2018-09-22T07:28:34.389Z,10.90
2018-09-22T07:31:03.730Z,11.10
2018-09-22T07:33:33.092Z,11.30
2018-09-22T07:36:01.779Z,11.50
2018-09-22T07:38:30.289Z,11.60
2018-09-22T07:40:58.874Z,11.70
2018-09-22T07:43:27.509Z,11.80
2018-09-22T07:45:56.261Z,12.00
2018-09-22T07:48:24.925Z,12.00
2018-09-22T07:50:53.742Z,12.00
2018-09-22T07:53:22.422Z,12.10
2018-09-22T07:55:51.108Z,12.20
2018-09-22T07:58:20.101Z,12.20
2018-09-22T08:00:49.182Z,12.30
2018-09-22T08:03:17.745Z,12.40
2018-09-22T08:05:46.348Z,12.50
2018-09-22T08:08:15.181Z,12.50
2018-09-22T08:10:43.918Z,12.70
2018-09-22T08:13:12.505Z,12.80
2018-09-22T08:15:41.204Z,12.80
2018-09-22T08:18:09.839Z,12.90
2018-09-22T08:20:38.550Z,12.90
2018-09-22T08:23:07.193Z,12.90
2018-09-22T08:25:35.894Z,13.10
2018-09-22T08:28:04.632Z,13.30
2018-09-22T08:30:33.455Z,13.20
2018-09-22T08:33:02.742Z,13.20
2018-09-22T08:35:31.609Z,13.40
2018-09-22T08:38:00.313Z,13.40
2018-09-22T08:40:28.880Z,13.60
2018-09-22T08:42:58.097Z,13.30
2018-09-22T08:45:26.869Z,13.50
2018-09-22T08:47:55.903Z,13.60
2018-09-22T08:50:24.649Z,13.70
2018-09-22T08:52:53.350Z,14.00
2018-09-22T08:55:22.029Z,14.30
2018-09-22T08:57:51.981Z,14.60
2018-09-22T09:00:20.678Z,14.50
2018-09-22T09:02:49.378Z,14.60
2018-09-22T09:05:17.961Z,14.70
2018-09-22T09:07:46.661Z,14.80
2018-09-22T09:10:15.285Z,14.80
2018-09-22T09:12:43.977Z,15.00
2018-09-22T09:15:12.829Z,15.20
2018-09-22T09:17:41.424Z,15.10
2018-09-22T09:20:10.650Z,15.30
2018-09-22T09:22:39.448Z,15.30
2018-09-22T09:25:08.221Z,15.20
2018-09-22T09:27:37.105Z,14.90
2018-09-22T09:30:05.781Z,15.10
2018-09-22T09:32:34.505Z,15.10
2018-09-22T09:37:31.944Z,15.10
2018-09-22T09:40:01.291Z,15.20
2018-09-22T09:42:30.364Z,15.30
2018-09-22T09:44:59.025Z,15.20
2018-09-22T09:47:27.749Z,15.20
2018-09-22T09:49:56.462Z,15.40
2018-09-22T09:52:25.030Z,15.40
2018-09-22T09:54:53.751Z,15.70
2018-09-22T09:57:22.342Z,16.10
2018-09-22T09:59:50.989Z,16.20
2018-09-22T10:02:19.576Z,16.10
2018-09-22T10:04:48.182Z,16.10
2018-09-22T10:07:16.869Z,16.20
2018-09-22T10:09:45.449Z,16.20
2018-09-22T10:12:14.030Z,16.60
2018-09-22T10:14:43.320Z,16.60
2018-09-22T10:17:12.264Z,16.60
2018-09-22T10:19:41.067Z,16.60
2018-09-22T10:22:09.988Z,16.70
2018-09-22T10:24:38.801Z,16.80
2018-09-22T10:27:07.411Z,16.50
2018-09-22T10:29:36.041Z,16.00
2018-09-22T10:32:04.601Z,16.00
2018-09-22T10:34:33.234Z,16.20
2018-09-22T10:37:01.905Z,16.20
2018-09-22T10:39:30.489Z,16.20
2018-09-22T10:41:59.054Z,16.00
2018-09-22T10:44:27.938Z,16.10
2018-09-22T10:46:56.602Z,16.30
2018-09-22T10:49:25.277Z,16.60
2018-09-22T10:51:54.009Z,17.10
2018-09-22T10:54:22.701Z,17.30
2018-09-22T10:56:52.031Z,17.30
2018-09-22T10:59:20.671Z,17.20
2018-09-22T11:01:49.342Z,17.60
2018-09-22T11:04:18.680Z,17.50
2018-09-22T11:06:47.289Z,17.40
2018-09-22T11:09:16.052Z,17.20
2018-09-22T11:11:44.859Z,17.80
2018-09-22T11:14:13.554Z,18.00
2018-09-22T11:16:42.234Z,18.20
2018-09-22T11:19:10.965Z,18.00
2018-09-22T11:21:39.520Z,17.60
2018-09-22T11:24:08.110Z,17.00
2018-09-22T11:26:36.845Z,16.60
2018-09-22T11:29:05.620Z,16.30
2018-09-22T11:31:34.201Z,16.30
2018-09-22T11:34:02.757Z,16.90
2018-09-22T11:36:31.577Z,16.60
2018-09-22T11:39:00.306Z,17.10
2018-09-22T11:41:28.981Z,17.40
2018-09-22T11:43:57.649Z,16.80
2018-09-22T11:46:26.285Z,16.60
2018-09-22T11:48:54.922Z,17.30
2018-09-22T11:51:23.975Z,16.80
2018-09-22T11:53:52.645Z,17.50
2018-09-22T11:56:21.425Z,18.30
2018-09-22T11:58:50.772Z,18.70
2018-09-22T12:01:19.370Z,18.70
2018-09-22T12:03:47.893Z,18.80
2018-09-22T12:06:16.646Z,18.80
2018-09-22T12:08:45.342Z,18.90
2018-09-22T12:11:14.011Z,18.20
2018-09-22T12:13:42.692Z,17.60
2018-09-22T12:16:12.310Z,18.20
2018-09-22T12:18:40.981Z,18.50
2018-09-22T12:21:09.741Z,18.50
2018-09-22T12:23:38.316Z,18.80
2018-09-22T12:26:07.109Z,19.10
2018-09-22T12:28:35.963Z,19.30
2018-09-22T12:31:04.613Z,19.50
2018-09-22T12:33:33.191Z,19.50
2018-09-22T12:36:02.010Z,19.60
2018-09-22T12:38:30.562Z,19.80
2018-09-22T12:40:59.302Z,19.40
2018-09-22T12:43:27.981Z,19.40
2018-09-22T12:45:56.687Z,19.10
2018-09-22T12:48:25.219Z,18.80
2018-09-22T12:50:53.857Z,19.00
2018-09-22T12:53:22.508Z,18.90
2018-09-22T12:55:51.165Z,18.40
2018-09-22T12:58:19.881Z,18.00
2018-09-22T13:00:48.452Z,18.60
2018-09-22T13:03:17.120Z,18.90
2018-09-22T13:05:45.870Z,19.10
2018-09-22T13:08:14.450Z,19.20
2018-09-22T13:10:44.109Z,19.40
2018-09-22T13:13:12.673Z,19.50
2018-09-22T13:15:41.405Z,19.40
2018-09-22T13:18:10.125Z,19.80
2018-09-22T13:20:38.716Z,20.00
2018-09-22T13:23:07.371Z,19.70
2018-09-22T13:25:36.064Z,19.10
2018-09-22T13:28:04.628Z,19.40
2018-09-22T13:30:33.227Z,19.70
2018-09-22T13:33:01.960Z,19.70
2018-09-22T13:35:30.525Z,20.00
2018-09-22T13:37:59.190Z,19.90
2018-09-22T13:40:27.765Z,19.80
2018-09-22T13:42:56.291Z,19.80
2018-09-22T13:45:24.930Z,20.10
2018-09-22T13:47:53.577Z,20.00
2018-09-22T13:50:22.318Z,20.30
2018-09-22T13:52:51.080Z,19.70
2018-09-22T13:55:19.651Z,19.50
2018-09-22T13:57:48.361Z,18.80
2018-09-22T14:00:17.013Z,19.10
2018-09-22T14:02:45.606Z,19.10
2018-09-22T14:05:14.233Z,19.20
2018-09-22T14:07:43.636Z,19.30
2018-09-22T14:10:12.289Z,19.50
2018-09-22T14:12:40.906Z,19.30
2018-09-22T14:15:09.498Z,19.10
2018-09-22T14:17:38.152Z,19.10
2018-09-22T14:20:06.760Z,19.10
2018-09-22T14:22:35.469Z,18.90
2018-09-22T14:25:04.073Z,18.90
2018-09-22T14:27:32.786Z,19.00
2018-09-22T14:30:01.366Z,19.20
2018-09-22T14:32:30.682Z,19.10
2018-09-22T14:34:59.414Z,18.60
2018-09-22T14:37:30.890Z,18.10
2018-09-22T14:40:00.246Z,18.10
2018-09-22T14:42:29.014Z,18.20
2018-09-22T14:44:57.603Z,18.10
2018-09-22T14:47:26.361Z,18.10
2018-09-22T14:49:54.989Z,18.00
2018-09-22T14:52:23.668Z,17.80
2018-09-22T14:54:52.302Z,17.80
2018-09-22T14:57:21.209Z,17.90
2018-09-22T14:59:50.561Z,17.70
2018-09-22T15:02:19.168Z,17.60
2018-09-22T15:04:47.761Z,17.80
2018-09-22T15:07:16.955Z,17.60
2018-09-22T15:09:45.713Z,17.60
2018-09-22T15:12:14.498Z,17.40
2018-09-22T15:14:43.304Z,17.30
2018-09-22T15:17:12.044Z,17.20
2018-09-22T15:19:40.692Z,17.30
2018-09-22T15:22:16.548Z,17.20
2018-09-22T15:24:45.365Z,17.10
2018-09-22T15:27:13.922Z,16.90
2018-09-22T15:29:42.766Z,17.00
2018-09-22T15:32:11.553Z,16.90
2018-09-22T15:34:40.391Z,16.90
2018-09-22T15:37:12.351Z,16.90
2018-09-22T15:39:41.061Z,16.80
2018-09-22T15:42:09.769Z,16.90
2018-09-22T15:44:38.718Z,16.90
2018-09-22T15:47:08.037Z,16.80
2018-09-22T15:49:36.606Z,16.80
2018-09-22T15:52:05.402Z,16.80
2018-09-22T15:54:33.962Z,16.70
2018-09-22T15:57:02.636Z,16.50
2018-09-22T15:59:31.244Z,16.40
2018-09-22T16:01:59.940Z,16.40
2018-09-22T16:04:28.566Z,16.40
2018-09-22T16:06:58.004Z,16.40
2018-09-22T16:09:27.240Z,16.40
2018-09-22T16:11:56.010Z,16.30
2018-09-22T16:14:25.278Z,16.30
2018-09-22T16:16:53.989Z,16.30
2018-09-22T16:19:22.725Z,16.20
2018-09-22T16:21:51.513Z,16.10
2018-09-22T16:24:20.121Z,16.00
2018-09-22T16:26:48.955Z,16.00
2018-09-22T16:29:17.562Z,16.00
2018-09-22T16:31:46.510Z,16.00
2018-09-22T16:34:15.426Z,16.00
2018-09-22T16:36:44.161Z,15.90
2018-09-22T16:39:13.544Z,15.90
2018-09-22T16:41:42.212Z,15.90
2018-09-22T16:44:11.565Z,15.70
2018-09-22T16:46:40.382Z,15.70
2018-09-22T16:49:09.064Z,15.60
2018-09-22T16:51:37.646Z,15.60
2018-09-22T16:54:06.285Z,15.50
2018-09-22T16:56:34.972Z,15.50
2018-09-22T16:59:03.820Z,15.40
2018-09-22T17:01:32.444Z,15.40
2018-09-22T17:04:01.024Z,15.30
2018-09-22T17:06:29.706Z,15.30
2018-09-22T17:08:58.264Z,15.30
2018-09-22T17:11:27.669Z,15.30
2018-09-22T17:13:56.313Z,15.20
2018-09-22T17:16:24.932Z,15.20
2018-09-22T17:18:53.479Z,15.00
2018-09-22T17:21:22.344Z,14.90
2018-09-22T17:23:51.060Z,14.80
2018-09-22T17:26:19.701Z,14.70
2018-09-22T17:28:48.354Z,14.70
2018-09-22T17:31:16.981Z,14.50
2018-09-22T17:33:46.189Z,14.50
2018-09-22T17:36:14.773Z,14.60
2018-09-22T17:38:43.381Z,14.50
2018-09-22T17:41:12.036Z,14.50
2018-09-22T17:43:40.772Z,14.50
2018-09-22T17:46:09.421Z,14.40
2018-09-22T17:48:38.153Z,14.40
2018-09-22T17:51:07.089Z,14.30
2018-09-22T17:53:35.688Z,14.30
2018-09-22T17:56:04.413Z,14.20
2018-09-22T17:58:33.945Z,14.10
2018-09-22T18:01:02.650Z,14.10
2018-09-22T18:03:31.279Z,14.10
2018-09-22T18:06:00.034Z,14.10
2018-09-22T18:08:28.748Z,14.00
2018-09-22T18:10:57.491Z,13.90
2018-09-22T18:13:26.258Z,13.90
2018-09-22T18:15:54.937Z,13.90
2018-09-22T18:18:23.691Z,13.90
2018-09-22T18:20:52.413Z,13.90
2018-09-22T18:23:21.168Z,13.80
2018-09-22T18:25:49.878Z,13.80
2018-09-22T18:28:18.605Z,13.80
2018-09-22T18:30:47.652Z,13.80
2018-09-22T18:33:17.447Z,13.80
2018-09-22T18:35:46.072Z,13.90
2018-09-22T18:38:14.975Z,13.80
2018-09-22T18:40:43.630Z,13.80
2018-09-22T18:43:12.200Z,13.80
2018-09-22T18:45:40.842Z,13.80
2018-09-22T18:48:09.549Z,13.70
2018-09-22T18:50:38.273Z,13.70
2018-09-22T18:53:07.060Z,13.70
2018-09-22T18:55:35.707Z,13.70
2018-09-22T18:58:04.458Z,13.60
2018-09-22T19:00:33.121Z,13.60
2018-09-22T19:03:02.939Z,13.60
2018-09-22T19:05:31.576Z,13.50
2018-09-22T19:08:00.171Z,13.50
2018-09-22T19:10:28.828Z,13.50
2018-09-22T19:12:58.376Z,13.50
2018-09-22T19:15:57.693Z,13.50
2018-09-22T19:18:35.447Z,13.40
2018-09-22T19:22:10.280Z,13.40
2018-09-22T19:25:09.643Z,13.40
2018-09-22T19:28:00.162Z,13.40
2018-09-22T19:30:45.205Z,13.40
2018-09-22T19:33:26.248Z,13.30
2018-09-22T19:36:02.367Z,13.30
2018-09-22T19:40:40.314Z,13.20
2018-09-22T19:43:19.652Z,13.20
2018-09-22T19:45:50.513Z,13.20
2018-09-22T19:48:34.136Z,13.20
2018-09-22T19:51:06.409Z,13.00
2018-09-22T19:53:35.213Z,13.00
2018-09-22T19:56:03.993Z,13.00
2018-09-22T19:58:33.329Z,12.90
2018-09-22T20:01:02.326Z,12.90
2018-09-22T20:03:31.059Z,12.90
2018-09-22T20:05:59.667Z,12.80
2018-09-22T20:08:28.401Z,12.80
2018-09-22T20:10:57.097Z,12.70
2018-09-22T20:13:25.696Z,12.60
2018-09-22T20:15:54.543Z,12.70
2018-09-22T20:18:24.153Z,12.70
2018-09-22T20:20:52.719Z,12.70
2018-09-22T20:23:21.448Z,12.70
2018-09-22T20:25:50.151Z,12.70
2018-09-22T20:28:18.758Z,12.70
2018-09-22T20:30:48.393Z,12.60
2018-09-22T20:33:17.061Z,12.70
2018-09-22T20:35:45.728Z,12.70
2018-09-22T20:38:14.360Z,12.60
2018-09-22T20:40:43.171Z,12.60
2018-09-22T20:43:12.643Z,12.50
2018-09-22T20:45:41.274Z,12.50
2018-09-22T20:48:10.046Z,12.50
2018-09-22T20:50:39.545Z,12.50
2018-09-22T20:53:08.223Z,12.40
2018-09-22T20:55:36.831Z,12.40
2018-09-22T20:58:05.654Z,12.40
2018-09-22T21:00:34.510Z,12.30
2018-09-22T21:03:03.152Z,12.40
2018-09-22T21:05:31.862Z,12.40
2018-09-22T21:08:00.489Z,12.40
2018-09-22T21:10:29.157Z,12.30
2018-09-22T21:12:57.959Z,12.30
2018-09-22T21:15:26.733Z,12.20
2018-09-22T21:17:55.490Z,12.30
2018-09-22T21:20:24.109Z,12.30
2018-09-22T21:22:52.728Z,12.20
2018-09-22T21:25:21.453Z,12.20
2018-09-22T21:27:50.041Z,12.10
2018-09-22T21:30:18.737Z,12.10
2018-09-22T21:32:47.672Z,12.10
2018-09-22T21:35:16.931Z,12.00
2018-09-22T21:37:45.511Z,12.00
2018-09-22T21:40:14.173Z,11.90
2018-09-22T21:42:42.901Z,11.80
2018-09-22T21:45:11.478Z,11.70
2018-09-22T21:47:40.050Z,11.70
2018-09-22T21:50:08.743Z,11.70
2018-09-22T21:52:37.366Z,11.80
2018-09-22T21:55:06.021Z,11.80
2018-09-22T21:57:34.732Z,11.70
2018-09-22T22:00:03.775Z,11.70
2018-09-22T22:02:32.639Z,11.60
2018-09-22T22:05:01.398Z,11.50
2018-09-22T22:07:30.099Z,11.40
2018-09-22T22:09:59.421Z,11.50
2018-09-22T22:12:28.872Z,11.50
2018-09-22T22:14:57.595Z,11.40
2018-09-22T22:17:26.294Z,11.40
2018-09-22T22:19:54.973Z,11.40
2018-09-22T22:22:23.639Z,11.40
2018-09-22T22:24:52.288Z,11.40
2018-09-22T22:27:20.890Z,11.40
2018-09-22T22:29:49.591Z,11.40
2018-09-22T22:32:18.274Z,11.30
2018-09-22T22:34:46.921Z,11.20
2018-09-22T22:37:15.599Z,11.30
2018-09-22T22:39:44.626Z,11.30
2018-09-22T22:42:13.343Z,11.30
2018-09-22T22:44:41.916Z,11.30
2018-09-22T22:47:10.486Z,11.20
2018-09-22T22:49:39.171Z,11.10
2018-09-22T22:52:07.894Z,11.20
2018-09-22T22:54:36.929Z,11.20
2018-09-22T22:57:05.877Z,11.20
2018-09-22T22:59:35.091Z,11.30
2018-09-22T23:02:03.699Z,11.30
2018-09-22T23:04:32.277Z,11.20
2018-09-22T23:07:00.907Z,11.20
2018-09-22T23:09:29.497Z,11.10
2018-09-22T23:11:58.101Z,11.10
2018-09-22T23:14:26.696Z,11.20
2018-09-22T23:16:55.289Z,11.20
2018-09-22T23:19:24.054Z,11.20
2018-09-22T23:21:52.721Z,11.20
2018-09-22T23:24:21.343Z,11.10
2018-09-22T23:26:49.992Z,11.10
2018-09-22T23:29:18.804Z,11.00
2018-09-22T23:31:47.422Z,11.10
2018-09-22T23:34:16.273Z,11.10
2018-09-22T23:36:44.929Z,11.10
2018-09-22T23:39:13.517Z,11.10
2018-09-22T23:41:42.541Z,11.00
2018-09-22T23:44:11.245Z,11.00
2018-09-22T23:46:40.245Z,11.00
2018-09-22T23:49:09.308Z,10.90
2018-09-22T23:51:37.975Z,10.80
2018-09-22T23:54:06.901Z,10.80
2018-09-22T23:56:35.470Z,10.80
